createdAt,value
2017-03-26T00:01:08.605Z,1026.308
2017-03-26T00:04:02.833Z,1026.360
2017-03-26T00:06:57.277Z,1026.347
2017-03-26T00:09:51.391Z,1026.284
2017-03-26T00:15:39.759Z,1026.261
2017-03-26T00:18:33.867Z,1026.226
2017-03-26T00:21:28.070Z,1026.234
2017-03-26T00:24:22.039Z,1026.247
2017-03-26T00:27:16.215Z,1026.227
2017-03-26T00:30:10.216Z,1026.184
2017-03-26T00:33:04.324Z,1026.220
2017-03-26T00:35:58.302Z,1026.268
2017-03-26T00:41:46.204Z,1026.214
2017-03-26T00:44:40.156Z,1026.176
2017-03-26T00:50:28.044Z,1026.182
2017-03-26T00:56:16.128Z,1026.212
2017-03-26T00:59:10.180Z,1026.211
2017-03-26T01:02:04.045Z,1026.201
2017-03-26T01:04:57.930Z,1026.177
2017-03-26T01:07:51.833Z,1026.103
2017-03-26T01:10:45.920Z,1026.075
2017-03-26T01:13:39.655Z,1026.086
2017-03-26T01:16:33.555Z,1026.077
2017-03-26T01:19:27.341Z,1026.087
2017-03-26T01:22:21.800Z,1026.072
2017-03-26T01:25:15.785Z,1026.067
2017-03-26T01:28:09.670Z,1026.080
2017-03-26T01:31:03.426Z,1026.045
2017-03-26T01:33:57.342Z,1026.057
2017-03-26T01:39:45.335Z,1026.027
2017-03-26T01:42:39.229Z,1026.004
2017-03-26T01:45:33.062Z,1026.032
2017-03-26T01:48:27.012Z,1026.080
2017-03-26T01:54:14.788Z,1026.253
2017-03-26T01:57:08.566Z,1026.321
2017-03-26T02:00:02.398Z,1026.372
2017-03-26T02:02:56.255Z,1026.383
2017-03-26T02:05:50.047Z,1026.400
2017-03-26T02:08:43.821Z,1026.352
2017-03-26T02:11:37.609Z,1026.359
2017-03-26T02:14:31.519Z,1026.328
2017-03-26T02:20:19.074Z,1026.327
2017-03-26T02:23:12.866Z,1026.285
2017-03-26T02:26:06.610Z,1026.301
2017-03-26T02:29:00.526Z,1026.241
2017-03-26T02:31:54.444Z,1026.269
2017-03-26T02:34:48.137Z,1026.240
2017-03-26T02:40:35.705Z,1026.281
2017-03-26T02:43:29.584Z,1026.274
2017-03-26T02:46:23.428Z,1026.280
2017-03-26T02:52:11.117Z,1026.230
2017-03-26T02:57:58.736Z,1026.277
2017-03-26T03:00:52.617Z,1026.262
2017-03-26T03:03:46.505Z,1026.248
2017-03-26T03:06:40.167Z,1026.246
2017-03-26T03:12:28.059Z,1026.184
2017-03-26T03:15:21.884Z,1026.243
2017-03-26T03:18:15.754Z,1026.289
2017-03-26T03:21:09.528Z,1026.301
2017-03-26T03:24:03.321Z,1026.363
2017-03-26T03:32:44.772Z,1026.389
2017-03-26T03:35:38.504Z,1026.393
2017-03-26T03:38:32.311Z,1026.386
2017-03-26T03:44:19.813Z,1026.388
2017-03-26T03:50:07.296Z,1026.298
2017-03-26T03:53:01.092Z,1026.279
2017-03-26T03:55:54.847Z,1026.304
2017-03-26T03:58:48.540Z,1026.298
2017-03-26T04:01:42.337Z,1026.296
2017-03-26T04:04:36.432Z,1026.248
2017-03-26T04:07:30.113Z,1026.265
2017-03-26T04:10:24.272Z,1026.276
2017-03-26T04:16:11.646Z,1026.247
2017-03-26T04:21:59.295Z,1026.287
2017-03-26T04:24:53.109Z,1026.301
2017-03-26T04:27:46.894Z,1026.330
2017-03-26T04:30:40.689Z,1026.352
2017-03-26T04:36:28.389Z,1026.445
2017-03-26T04:39:22.196Z,1026.448
2017-03-26T04:42:15.931Z,1026.411
2017-03-26T04:45:09.688Z,1026.363
2017-03-26T04:50:56.962Z,1026.271
2017-03-26T04:53:50.539Z,1026.243
2017-03-26T04:56:44.355Z,1026.305
2017-03-26T04:59:37.855Z,1026.298
2017-03-26T05:02:31.384Z,1026.316
2017-03-26T05:05:24.987Z,1026.293
2017-03-26T05:08:18.676Z,1026.306
2017-03-26T05:11:12.322Z,1026.322
2017-03-26T05:14:06.031Z,1026.327
2017-03-26T05:19:53.446Z,1026.279
2017-03-26T05:22:47.152Z,1026.330
2017-03-26T05:25:40.832Z,1026.324
2017-03-26T05:31:28.220Z,1026.446
2017-03-26T05:34:22.013Z,1026.493
2017-03-26T05:37:15.772Z,1026.562
2017-03-26T05:40:09.542Z,1026.599
2017-03-26T05:43:03.323Z,1026.536
2017-03-26T05:51:44.970Z,1026.563
2017-03-26T05:54:38.919Z,1026.653
2017-03-26T06:03:20.749Z,1026.782
2017-03-26T06:06:14.783Z,1026.797
2017-03-26T06:12:02.931Z,1026.943
2017-03-26T06:14:56.957Z,1026.996
2017-03-26T06:17:51.070Z,1027.012
2017-03-26T06:23:39.229Z,1027.022
2017-03-26T06:26:33.354Z,1027.093
2017-03-26T06:29:27.518Z,1027.073
2017-03-26T06:32:21.643Z,1027.005
2017-03-26T06:38:10.556Z,1026.968
2017-03-26T06:41:05.153Z,1026.975
2017-03-26T06:44:00.014Z,1027.044
2017-03-26T06:46:54.726Z,1027.003
2017-03-26T06:49:49.643Z,1027.013
2017-03-26T06:52:44.575Z,1027.047
2017-03-26T06:55:39.477Z,1027.042
2017-03-26T06:58:34.318Z,1027.055
2017-03-26T07:01:29.216Z,1027.105
2017-03-26T07:04:24.064Z,1027.155
2017-03-26T07:07:18.879Z,1027.179
2017-03-26T07:13:08.749Z,1027.202
2017-03-26T07:16:03.635Z,1027.193
2017-03-26T07:18:58.516Z,1027.255
2017-03-26T07:21:53.397Z,1027.301
2017-03-26T07:24:48.428Z,1027.258
2017-03-26T07:27:43.460Z,1027.237
2017-03-26T07:30:38.508Z,1027.245
2017-03-26T07:33:33.713Z,1027.205
2017-03-26T07:36:29.005Z,1027.238
2017-03-26T07:39:24.326Z,1027.219
2017-03-26T07:42:19.643Z,1027.234
2017-03-26T07:45:15.108Z,1027.207
2017-03-26T07:48:10.483Z,1027.234
2017-03-26T07:51:06.222Z,1027.269
2017-03-26T07:54:01.645Z,1027.266
2017-03-26T07:56:57.033Z,1027.264
2017-03-26T07:59:52.413Z,1027.241
2017-03-26T08:02:47.890Z,1027.227
2017-03-26T08:05:43.495Z,1027.175
2017-03-26T08:08:38.929Z,1027.186
2017-03-26T08:11:34.295Z,1027.189
2017-03-26T08:17:25.051Z,1027.131
2017-03-26T08:20:20.375Z,1027.145
2017-03-26T08:23:15.623Z,1027.199
2017-03-26T08:26:10.988Z,1027.167
2017-03-26T08:29:06.273Z,1027.206
2017-03-26T08:32:01.686Z,1027.234
2017-03-26T08:34:57.327Z,1027.182
2017-03-26T08:37:52.711Z,1027.150
2017-03-26T08:40:48.159Z,1027.138
2017-03-26T08:43:43.744Z,1027.157
2017-03-26T08:46:39.127Z,1027.178
2017-03-26T08:52:29.876Z,1027.255
2017-03-26T08:55:25.328Z,1027.273
2017-03-26T08:58:20.356Z,1027.238
2017-03-26T09:01:15.534Z,1027.256
2017-03-26T09:04:11.131Z,1027.195
2017-03-26T09:07:06.620Z,1027.154
2017-03-26T09:10:01.985Z,1027.116
2017-03-26T09:12:57.377Z,1027.149
2017-03-26T09:15:52.962Z,1027.130
2017-03-26T09:18:48.571Z,1027.128
2017-03-26T09:21:44.204Z,1027.138
2017-03-26T09:24:39.778Z,1027.113
2017-03-26T09:27:35.596Z,1027.152
2017-03-26T09:30:31.392Z,1027.123
2017-03-26T09:33:27.011Z,1027.019
2017-03-26T09:39:18.189Z,1026.968
2017-03-26T09:42:13.637Z,1026.922
2017-03-26T09:45:08.894Z,1026.935
2017-03-26T09:48:03.847Z,1026.943
2017-03-26T09:50:58.960Z,1027.035
2017-03-26T09:53:54.092Z,1027.011
2017-03-26T09:56:49.378Z,1027.070
2017-03-26T09:59:44.605Z,1027.085
2017-03-26T10:02:39.989Z,1027.086
2017-03-26T10:05:35.554Z,1027.082
2017-03-26T10:08:31.001Z,1027.104
2017-03-26T10:11:26.269Z,1027.152
2017-03-26T10:14:21.677Z,1027.167
2017-03-26T10:17:17.465Z,1027.224
2017-03-26T10:20:13.004Z,1027.178
2017-03-26T10:23:08.750Z,1027.087
2017-03-26T10:26:03.956Z,1027.070
2017-03-26T10:28:58.608Z,1027.116
2017-03-26T10:31:53.034Z,1027.109
2017-03-26T10:34:47.423Z,1027.275
2017-03-26T10:37:41.771Z,1027.343
2017-03-26T10:40:36.278Z,1027.351
2017-03-26T10:43:30.714Z,1027.388
2017-03-26T10:46:25.144Z,1027.440
2017-03-26T10:49:19.501Z,1027.491
2017-03-26T10:52:14.118Z,1027.457
2017-03-26T10:58:03.295Z,1027.499
2017-03-26T11:00:57.779Z,1027.559
2017-03-26T11:03:52.444Z,1027.581
2017-03-26T11:06:46.881Z,1027.639
2017-03-26T11:09:41.545Z,1027.666
2017-03-26T11:12:36.143Z,1027.680
2017-03-26T11:15:30.571Z,1027.682
2017-03-26T11:18:25.064Z,1027.752
2017-03-26T11:21:19.635Z,1027.694
2017-03-26T11:24:14.625Z,1027.679
2017-03-26T11:27:09.166Z,1027.576
2017-03-26T11:30:03.824Z,1027.454
2017-03-26T11:35:52.906Z,1027.301
2017-03-26T11:38:47.411Z,1027.304
2017-03-26T11:41:41.836Z,1027.305
2017-03-26T11:50:25.340Z,1027.278
2017-03-26T11:53:19.845Z,1027.269
2017-03-26T11:56:14.461Z,1027.313
2017-03-26T11:59:08.963Z,1027.352
2017-03-26T12:02:03.545Z,1027.418
2017-03-26T12:04:57.943Z,1027.499
2017-03-26T12:07:52.495Z,1027.474
2017-03-26T12:13:41.607Z,1027.500
2017-03-26T12:19:30.796Z,1027.507
2017-03-26T12:22:25.397Z,1027.457
2017-03-26T12:25:19.908Z,1027.433
2017-03-26T12:28:14.473Z,1027.384
2017-03-26T12:31:09.031Z,1027.363
2017-03-26T12:34:03.444Z,1027.353
2017-03-26T12:36:58.024Z,1027.297
2017-03-26T12:39:52.542Z,1027.249
2017-03-26T12:45:41.638Z,1027.207
2017-03-26T12:48:36.184Z,1027.194
2017-03-26T12:51:30.727Z,1027.182
2017-03-26T12:54:25.640Z,1027.183
2017-03-26T12:57:20.169Z,1027.191
2017-03-26T13:00:14.785Z,1027.170
2017-03-26T13:03:09.363Z,1027.208
2017-03-26T13:06:03.925Z,1027.165
2017-03-26T13:08:58.487Z,1027.148
2017-03-26T13:11:52.944Z,1027.094
2017-03-26T13:14:47.541Z,1027.091
2017-03-26T13:17:42.007Z,1027.061
2017-03-26T13:20:36.598Z,1027.028
2017-03-26T13:23:31.303Z,1027.010
2017-03-26T13:26:25.816Z,1027.025
2017-03-26T13:29:20.367Z,1027.020
2017-03-26T13:32:15.022Z,1027.049
2017-03-26T13:35:09.636Z,1027.033
2017-03-26T13:38:04.231Z,1027.032
2017-03-26T13:40:58.757Z,1027.046
2017-03-26T13:43:53.359Z,1027.000
2017-03-26T13:46:47.987Z,1026.995
2017-03-26T13:49:42.590Z,1027.001
2017-03-26T13:52:37.344Z,1026.962
2017-03-26T13:55:32.048Z,1026.966
2017-03-26T13:58:26.637Z,1026.962
2017-03-26T14:01:21.221Z,1026.938
2017-03-26T14:04:15.676Z,1026.933
2017-03-26T14:07:10.371Z,1026.869
2017-03-26T14:10:05.115Z,1026.889
2017-03-26T14:12:59.758Z,1026.821
2017-03-26T14:15:54.758Z,1026.810
2017-03-26T14:18:49.320Z,1026.777
2017-03-26T14:21:43.992Z,1026.736
2017-03-26T14:24:38.616Z,1026.769
2017-03-26T14:27:33.363Z,1026.761
2017-03-26T14:30:28.097Z,1026.746
2017-03-26T14:33:22.742Z,1026.716
2017-03-26T14:36:17.355Z,1026.696
2017-03-26T14:39:12.004Z,1026.689
2017-03-26T14:42:06.714Z,1026.739
2017-03-26T14:45:01.308Z,1026.742
2017-03-26T14:47:55.958Z,1026.750
2017-03-26T14:50:50.514Z,1026.784
2017-03-26T14:53:45.042Z,1026.818
2017-03-26T14:56:39.707Z,1026.685
2017-03-26T14:59:34.104Z,1026.649
2017-03-26T15:02:28.514Z,1026.713
2017-03-26T15:05:23.018Z,1026.719
2017-03-26T15:08:17.632Z,1026.707
2017-03-26T15:11:12.157Z,1026.724
2017-03-26T15:14:06.679Z,1026.690
2017-03-26T15:17:01.332Z,1026.661
2017-03-26T15:19:55.899Z,1026.637
2017-03-26T15:22:50.395Z,1026.631
2017-03-26T15:25:44.945Z,1026.680
2017-03-26T15:28:39.525Z,1026.655
2017-03-26T15:31:34.015Z,1026.635
2017-03-26T15:34:28.489Z,1026.683
2017-03-26T15:37:23.062Z,1026.679
2017-03-26T15:40:17.440Z,1026.667
2017-03-26T15:43:11.987Z,1026.626
2017-03-26T15:46:06.489Z,1026.655
2017-03-26T15:49:00.992Z,1026.637
2017-03-26T15:51:55.578Z,1026.605
2017-03-26T15:54:50.082Z,1026.558
2017-03-26T15:57:44.779Z,1026.566
2017-03-26T16:00:39.270Z,1026.549
2017-03-26T16:03:33.756Z,1026.512
2017-03-26T16:06:28.320Z,1026.472
2017-03-26T16:09:22.890Z,1026.509
2017-03-26T16:12:17.463Z,1026.525
2017-03-26T16:15:11.921Z,1026.539
2017-03-26T16:18:06.409Z,1026.516
2017-03-26T16:21:00.902Z,1026.460
2017-03-26T16:23:55.387Z,1026.461
2017-03-26T16:26:49.940Z,1026.496
2017-03-26T16:29:44.501Z,1026.451
2017-03-26T16:32:39.256Z,1026.471
2017-03-26T16:35:33.631Z,1026.446
2017-03-26T16:38:28.117Z,1026.459
2017-03-26T16:41:22.637Z,1026.493
2017-03-26T16:44:17.085Z,1026.492
2017-03-26T16:47:12.012Z,1026.474
2017-03-26T16:50:06.633Z,1026.475
2017-03-26T16:53:01.106Z,1026.466
2017-03-26T16:55:55.634Z,1026.497
2017-03-26T16:58:50.059Z,1026.541
2017-03-26T17:01:44.532Z,1026.540
2017-03-26T17:04:38.941Z,1026.555
2017-03-26T17:07:33.396Z,1026.593
2017-03-26T17:10:27.828Z,1026.606
2017-03-26T17:13:22.316Z,1026.594
2017-03-26T17:19:11.161Z,1026.640
2017-03-26T17:22:05.652Z,1026.648
2017-03-26T17:25:00.048Z,1026.659
2017-03-26T17:27:54.391Z,1026.720
2017-03-26T17:30:48.781Z,1026.789
2017-03-26T17:33:43.097Z,1026.841
2017-03-26T17:39:31.892Z,1026.838
2017-03-26T17:45:20.768Z,1026.833
2017-03-26T17:48:15.127Z,1026.860
2017-03-26T17:54:04.210Z,1026.896
2017-03-26T17:56:58.478Z,1026.894
2017-03-26T17:59:52.824Z,1026.862
2017-03-26T18:02:47.043Z,1026.870
2017-03-26T18:05:41.282Z,1026.898
2017-03-26T18:08:35.644Z,1026.927
2017-03-26T18:14:24.198Z,1027.081
2017-03-26T18:20:12.690Z,1027.090
2017-03-26T18:23:07.011Z,1027.080
2017-03-26T18:26:01.254Z,1027.049
2017-03-26T18:28:55.475Z,1027.046
2017-03-26T18:31:49.587Z,1027.067
2017-03-26T18:34:43.797Z,1027.071
2017-03-26T18:37:37.880Z,1027.087
2017-03-26T18:40:32.027Z,1027.095
2017-03-26T18:43:26.058Z,1027.112
2017-03-26T18:46:20.314Z,1027.124
2017-03-26T18:49:14.518Z,1027.143
2017-03-26T18:52:08.730Z,1027.187
2017-03-26T18:55:02.812Z,1027.219
2017-03-26T19:00:51.249Z,1027.224
2017-03-26T19:03:45.514Z,1027.229
2017-03-26T19:06:39.754Z,1027.239
2017-03-26T19:15:22.312Z,1027.317
2017-03-26T19:18:16.648Z,1027.337
2017-03-26T19:21:10.742Z,1027.366
2017-03-26T19:24:04.875Z,1027.377
2017-03-26T19:26:59.388Z,1027.387
2017-03-26T19:29:53.568Z,1027.428
2017-03-26T19:32:48.026Z,1027.458
2017-03-26T19:35:41.940Z,1027.438
2017-03-26T19:38:36.290Z,1027.463
2017-03-26T19:44:24.548Z,1027.466
2017-03-26T19:47:18.752Z,1027.513
2017-03-26T19:50:12.895Z,1027.478
2017-03-26T19:53:06.899Z,1027.511
2017-03-26T19:56:01.057Z,1027.568
2017-03-26T19:58:55.154Z,1027.607
2017-03-26T20:01:49.209Z,1027.616
2017-03-26T20:10:31.755Z,1027.662
2017-03-26T20:16:19.974Z,1027.720
2017-03-26T20:19:14.002Z,1027.725
2017-03-26T20:22:08.039Z,1027.742
2017-03-26T20:25:02.240Z,1027.761
2017-03-26T20:27:56.327Z,1027.784
2017-03-26T20:30:50.353Z,1027.823
2017-03-26T20:33:44.285Z,1027.867
2017-03-26T20:36:38.300Z,1027.893
2017-03-26T20:39:32.228Z,1027.949
2017-03-26T20:42:26.205Z,1027.942
2017-03-26T20:45:20.273Z,1027.998
2017-03-26T20:48:14.314Z,1027.973
2017-03-26T20:51:08.314Z,1027.941
2017-03-26T20:54:02.408Z,1027.925
2017-03-26T20:56:56.458Z,1027.910
2017-03-26T20:59:50.498Z,1027.892
2017-03-26T21:02:44.450Z,1027.879
2017-03-26T21:05:38.691Z,1027.842
2017-03-26T21:08:32.751Z,1027.810
2017-03-26T21:14:20.804Z,1027.742
2017-03-26T21:17:14.852Z,1027.695
2017-03-26T21:20:08.856Z,1027.653
2017-03-26T21:23:02.855Z,1027.595
2017-03-26T21:25:56.788Z,1027.566
2017-03-26T21:28:50.840Z,1027.573
2017-03-26T21:31:44.790Z,1027.576
2017-03-26T21:34:38.853Z,1027.608
2017-03-26T21:40:26.777Z,1027.654
2017-03-26T21:43:20.795Z,1027.697
2017-03-26T21:46:14.753Z,1027.686
2017-03-26T21:52:03.125Z,1027.678
2017-03-26T21:54:57.167Z,1027.691
2017-03-26T21:57:51.115Z,1027.696
2017-03-26T22:00:45.028Z,1027.721
2017-03-26T22:03:39.102Z,1027.750
2017-03-26T22:06:33.106Z,1027.768
2017-03-26T22:09:27.146Z,1027.776
2017-03-26T22:12:21.158Z,1027.762
2017-03-26T22:18:09.361Z,1027.743
2017-03-26T22:23:57.383Z,1027.688
2017-03-26T22:26:51.429Z,1027.643
2017-03-26T22:29:45.588Z,1027.698
2017-03-26T22:32:39.598Z,1027.722
2017-03-26T22:38:27.783Z,1027.700
2017-03-26T22:44:15.840Z,1027.749
2017-03-26T22:47:09.921Z,1027.793
2017-03-26T22:50:03.982Z,1027.837
2017-03-26T22:52:57.999Z,1027.798
2017-03-26T22:55:51.986Z,1027.790
2017-03-26T22:58:46.004Z,1027.847
2017-03-26T23:01:40.215Z,1027.809
2017-03-26T23:04:34.143Z,1027.792
2017-03-26T23:07:28.809Z,1027.832
2017-03-26T23:10:22.895Z,1027.849
2017-03-26T23:13:16.930Z,1027.805
2017-03-26T23:16:10.962Z,1027.807
2017-03-26T23:19:05.091Z,1027.800
2017-03-26T23:21:59.093Z,1027.841
2017-03-26T23:24:53.137Z,1027.866
2017-03-26T23:27:47.235Z,1027.938
2017-03-26T23:30:41.309Z,1027.970
2017-03-26T23:33:35.332Z,1027.958
2017-03-26T23:36:29.446Z,1027.938
2017-03-26T23:39:23.488Z,1027.991
2017-03-26T23:42:17.461Z,1028.050
2017-03-26T23:45:11.484Z,1028.130
2017-03-26T23:48:05.467Z,1028.176
2017-03-26T23:53:53.504Z,1028.176
2017-03-26T23:56:47.507Z,1028.184
